Time;durP1;ratioP1;P1;durP2;ratioP2;P2;SDS_P1;SDS_P2;PMS_P1;PMS_P2;Temp;Humidity;BMP_temperature;BMP_pressure;BME280_temperature;BME280_humidity;BME280_pressure;Samples;Min_cycle;Max_cycle;Signal;HPM_P1;HPM_P2
2020/12/13 00:00:52;;;;;;;0.20;0.10;;;;;;;5.97;100.00;99246.63;5031668;28;20480;-53
2020/12/13 00:03:19;;;;;;;4.03;3.63;;;;;;;5.98;100.00;99252.75;5031799;28;20448;-51
2020/12/13 00:05:45;;;;;;;0.20;0.20;;;;;;;5.96;100.00;99247.53;5031570;28;20959;-52
2020/12/13 00:08:12;;;;;;;0.20;0.20;;;;;;;5.94;100.00;99250.22;5027906;28;20450;-50
2020/12/13 00:10:38;;;;;;;0.23;0.20;;;;;;;5.96;100.00;99255.44;5035080;28;20871;-51
2020/12/13 00:13:04;;;;;;;0.20;0.20;;;;;;;5.97;100.00;99251.91;5034985;28;20961;-50
2020/12/13 00:15:30;;;;;;;0.30;0.30;;;;;;;5.97;100.00;99262.44;5035165;28;20448;-51
2020/12/13 00:17:56;;;;;;;0.20;0.10;;;;;;;5.99;100.00;99262.41;5034711;28;20879;-50
2020/12/13 00:20:22;;;;;;;0.20;0.10;;;;;;;6.01;100.00;99263.22;5034973;28;20548;-51
2020/12/13 00:22:49;;;;;;;0.20;0.20;;;;;;;6.03;100.00;99258.78;5035195;28;20462;-50
2020/12/13 00:25:15;;;;;;;0.30;0.20;;;;;;;6.01;100.00;99261.44;5034783;28;20905;-50
2020/12/13 00:27:42;;;;;;;0.20;0.20;;;;;;;6.06;100.00;99271.91;5034950;28;20567;-50
2020/12/13 00:30:08;;;;;;;0.20;0.20;;;;;;;6.00;100.00;99272.91;5034728;28;20460;-51
2020/12/13 00:32:34;;;;;;;0.30;0.20;;;;;;;6.01;100.00;99272.00;5034714;28;20521;-51
2020/12/13 00:35:02;;;;;;;0.30;0.20;;;;;;;5.98;100.00;99279.13;5034701;28;20475;-51
2020/12/13 00:37:28;;;;;;;0.30;0.20;;;;;;;5.90;100.00;99274.06;5031225;28;20444;-54
2020/12/13 00:39:54;;;;;;;0.20;0.20;;;;;;;5.88;100.00;99278.47;5027646;28;20495;-51
2020/12/13 00:42:21;;;;;;;0.20;0.20;;;;;;;5.98;100.00;99284.41;5031423;28;20962;-51
2020/12/13 00:44:47;;;;;;;0.20;0.10;;;;;;;5.94;100.00;99276.59;5027915;28;20451;-51
2020/12/13 00:47:13;;;;;;;0.20;0.10;;;;;;;5.99;100.00;99283.50;5034218;28;20828;-50
2020/12/13 00:49:39;;;;;;;0.20;0.10;;;;;;;5.99;100.00;99286.13;5034712;28;20471;-51
2020/12/13 00:52:06;;;;;;;0.30;0.20;;;;;;;5.94;100.00;99283.63;5034330;28;20455;-50
2020/12/13 00:54:32;;;;;;;0.70;0.70;;;;;;;5.92;100.00;99296.00;5034232;28;20941;-51
2020/12/13 00:56:58;;;;;;;0.20;0.10;;;;;;;5.93;100.00;99292.47;5034487;28;20497;-51
2020/12/13 00:59:26;;;;;;;0.63;0.63;;;;;;;5.99;100.00;99292.28;5034109;28;20887;-50
2020/12/13 01:01:52;;;;;;;0.30;0.27;;;;;;;5.94;100.00;99302.09;5034105;28;20486;-51
2020/12/13 01:04:19;;;;;;;0.30;0.20;;;;;;;5.79;100.00;99295.41;5034278;28;20506;-49
2020/12/13 01:06:45;;;;;;;0.20;0.20;;;;;;;5.91;100.00;99302.19;5034295;28;20542;-49
2020/12/13 01:09:11;;;;;;;0.30;0.20;;;;;;;5.77;100.00;99305.13;5030386;28;20464;-50
2020/12/13 01:11:37;;;;;;;0.40;0.40;;;;;;;5.80;100.00;99310.31;5034108;28;20818;-49
2020/12/13 01:14:04;;;;;;;0.30;0.20;;;;;;;5.79;100.00;99302.47;5033718;28;20456;-49
2020/12/13 01:16:31;;;;;;;0.93;0.93;;;;;;;5.77;100.00;99309.53;5033869;28;20459;-49
2020/12/13 01:18:59;;;;;;;0.53;0.53;;;;;;;5.82;100.00;99305.88;5033714;28;20489;-49
2020/12/13 01:21:31;;;;;;;0.20;0.20;;;;;;;5.87;100.00;99313.66;5033478;28;20459;-49
2020/12/13 01:23:57;;;;;;;0.20;0.10;;;;;;;5.83;100.00;99312.88;5033752;28;20448;-49
2020/12/13 01:26:25;;;;;;;0.30;0.20;;;;;;;5.85;100.00;99316.34;5032589;28;20456;-50
2020/12/13 01:28:53;;;;;;;0.30;0.20;;;;;;;5.83;100.00;99320.78;5033363;28;20543;-49
2020/12/13 01:31:21;;;;;;;0.23;0.20;;;;;;;5.85;100.00;99326.88;5033916;28;20598;-49
2020/12/13 01:33:49;;;;;;;2.40;2.20;;;;;;;5.85;100.00;99326.88;5033261;28;20459;-49
2020/12/13 01:36:19;;;;;;;0.20;0.20;;;;;;;5.88;100.00;99328.56;5033206;28;20805;-49
2020/12/13 01:38:46;;;;;;;0.20;0.20;;;;;;;5.96;100.00;99331.06;5022731;28;20826;-51
2020/12/13 01:41:12;;;;;;;0.20;0.10;;;;;;;5.92;100.00;99332.91;5033521;28;20448;-49
2020/12/13 01:43:38;;;;;;;0.20;0.10;;;;;;;5.93;100.00;99339.94;5023147;28;20463;-49
2020/12/13 01:46:05;;;;;;;0.40;0.40;;;;;;;5.93;100.00;99348.69;5033621;28;20493;-49
2020/12/13 01:48:32;;;;;;;0.30;0.20;;;;;;;5.86;100.00;99348.84;5032863;28;20952;-50
2020/12/13 01:51:15;;;;;;;1.40;1.40;;;;;;;5.93;100.00;99347.84;5033210;28;20463;-49
2020/12/13 01:53:44;;;;;;;0.20;0.20;;;;;;;5.90;100.00;99354.06;5033171;28;20451;-49
2020/12/13 01:56:11;;;;;;;0.20;0.20;;;;;;;5.88;100.00;99354.94;5033088;28;20448;-49
2020/12/13 01:58:38;;;;;;;0.20;0.10;;;;;;;6.02;100.00;99362.53;5033245;28;20470;-49
2020/12/13 02:01:07;;;;;;;0.30;0.20;;;;;;;5.96;100.00;99360.94;5033219;28;20541;-52
2020/12/13 02:03:53;;;;;;;0.20;0.20;;;;;;;5.92;100.00;99368.06;5033107;28;20448;-49
2020/12/13 02:06:22;;;;;;;1.70;1.60;;;;;;;5.86;100.00;99368.16;5032980;28;20444;-49
2020/12/13 02:08:50;;;;;;;0.23;0.10;;;;;;;5.85;100.00;99362.94;5029157;28;20483;-49
2020/12/13 02:11:19;;;;;;;0.30;0.20;;;;;;;5.91;100.00;99365.47;5032833;28;20452;-49
2020/12/13 02:13:48;;;;;;;0.30;0.20;;;;;;;5.82;100.00;99363.03;5032490;28;20481;-50
2020/12/13 02:16:17;;;;;;;0.30;0.10;;;;;;;5.89;100.00;99372.50;5032864;28;20459;-50
2020/12/13 02:18:45;;;;;;;0.20;0.10;;;;;;;5.86;100.00;99367.31;5032833;28;20539;-49
2020/12/13 02:21:12;;;;;;;1.17;1.17;;;;;;;5.87;100.00;99380.44;5033124;28;20452;-49
2020/12/13 02:23:40;;;;;;;0.30;0.20;;;;;;;5.77;100.00;99378.97;5032566;28;20867;-51
2020/12/13 02:26:08;;;;;;;0.27;0.20;;;;;;;5.80;100.00;99376.25;5032534;28;20501;-50
2020/12/13 02:28:35;;;;;;;0.30;0.20;;;;;;;5.84;100.00;99382.31;5032861;28;20540;-52
2020/12/13 02:31:03;;;;;;;0.30;0.20;;;;;;;5.82;100.00;99373.56;5032463;28;20454;-50
2020/12/13 02:33:31;;;;;;;0.30;0.20;;;;;;;5.84;100.00;99377.03;5032029;28;20455;-50
2020/12/13 02:35:58;;;;;;;0.20;0.10;;;;;;;5.82;100.00;99379.72;5032417;28;20467;-51
2020/12/13 02:38:27;;;;;;;1.03;1.03;;;;;;;5.75;100.00;99386.00;5021931;28;20464;-50
2020/12/13 02:40:54;;;;;;;0.30;0.20;;;;;;;5.68;100.00;99381.81;5032066;28;20495;-50
2020/12/13 02:43:21;;;;;;;0.20;0.13;;;;;;;5.68;100.00;99399.41;5022001;28;20473;-50
2020/12/13 02:45:47;;;;;;;0.20;0.20;;;;;;;5.61;100.00;99388.97;5032619;28;20448;-50
2020/12/13 02:48:13;;;;;;;0.30;0.20;;;;;;;5.58;100.00;99396.97;5032067;28;20452;-52
2020/12/13 02:50:39;;;;;;;0.20;0.10;;;;;;;5.60;100.00;99403.06;5032453;28;20479;-52
2020/12/13 02:53:06;;;;;;;0.20;0.10;;;;;;;5.51;100.00;99398.00;5032304;28;20452;-52
2020/12/13 02:55:32;;;;;;;0.20;0.17;;;;;;;5.55;100.00;99404.06;5032261;28;20452;-52
2020/12/13 02:57:58;;;;;;;0.20;0.17;;;;;;;5.51;100.00;99410.31;5032248;28;20451;-52
2020/12/13 03:00:24;;;;;;;0.20;0.13;;;;;;;5.57;100.00;99411.03;5032063;28;20582;-51
2020/12/13 03:02:50;;;;;;;0.80;0.80;;;;;;;5.48;100.00;99421.81;5032229;28;20467;-51
2020/12/13 03:05:17;;;;;;;0.30;0.20;;;;;;;5.53;100.00;99421.69;5031980;28;20940;-51
2020/12/13 03:07:43;;;;;;;0.20;0.20;;;;;;;5.51;100.00;99413.84;5027594;28;20539;-52
2020/12/13 03:10:09;;;;;;;0.93;0.93;;;;;;;5.56;100.00;99417.22;5032356;28;20476;-51
2020/12/13 03:12:36;;;;;;;0.30;0.10;;;;;;;5.52;100.00;99415.56;5031936;28;20502;-52
2020/12/13 03:15:02;;;;;;;0.20;0.20;;;;;;;5.48;100.00;99424.44;5032575;28;20506;-53
2020/12/13 03:17:28;;;;;;;0.20;0.20;;;;;;;5.54;100.00;99428.69;5031633;28;20531;-52
2020/12/13 03:19:54;;;;;;;0.20;0.10;;;;;;;5.56;100.00;99434.81;5031905;28;20582;-52
2020/12/13 03:22:21;;;;;;;2.30;2.20;;;;;;;5.47;100.00;99433.22;5032245;28;20467;-52
2020/12/13 03:24:47;;;;;;;0.27;0.20;;;;;;;5.55;100.00;99447.13;5032198;28;20451;-53
2020/12/13 03:27:13;;;;;;;0.30;0.20;;;;;;;5.61;100.00;99441.69;5031933;28;20451;-52
2020/12/13 03:29:39;;;;;;;0.20;0.20;;;;;;;5.57;100.00;99455.84;5031858;28;20467;-54
2020/12/13 03:32:05;;;;;;;0.30;0.20;;;;;;;5.56;100.00;99448.84;5032037;28;20462;-53
2020/12/13 03:34:32;;;;;;;0.30;0.20;;;;;;;5.62;100.00;99455.78;5032203;28;20953;-53
2020/12/13 03:36:58;;;;;;;0.20;0.10;;;;;;;5.63;100.00;99449.59;5031934;28;20443;-53
2020/12/13 03:39:24;;;;;;;0.20;0.10;;;;;;;5.65;100.00;99461.84;5020898;28;20508;-53
2020/12/13 03:41:51;;;;;;;0.20;0.20;;;;;;;5.64;100.00;99456.59;5031942;28;20455;-52
2020/12/13 03:44:17;;;;;;;0.30;0.20;;;;;;;5.72;100.00;99466.97;5023589;28;20460;-52
2020/12/13 03:46:44;;;;;;;0.20;0.20;;;;;;;5.81;100.00;99464.13;5035913;28;20890;-51
2020/12/13 03:49:10;;;;;;;0.20;0.20;;;;;;;5.69;100.00;99469.66;5035649;28;20478;-51
2020/12/13 03:51:36;;;;;;;0.20;0.10;;;;;;;5.71;100.00;99478.41;5035417;28;20932;-52
2020/12/13 03:54:03;;;;;;;0.20;0.10;;;;;;;5.74;100.00;99478.34;5035840;28;20447;-52
2020/12/13 03:56:29;;;;;;;0.20;0.20;;;;;;;5.70;100.00;99476.69;5035356;28;20448;-51
2020/12/13 03:58:55;;;;;;;0.30;0.10;;;;;;;5.70;100.00;99482.81;5035553;28;20451;-52
2020/12/13 04:01:21;;;;;;;0.20;0.10;;;;;;;5.74;100.00;99480.97;5035236;28;20459;-52
2020/12/13 04:03:47;;;;;;;0.30;0.20;;;;;;;5.81;100.00;99472.91;5035391;28;20935;-51
2020/12/13 04:06:14;;;;;;;2.20;1.90;;;;;;;5.77;100.00;99483.56;5035312;28;20447;-51
2020/12/13 04:08:40;;;;;;;0.63;0.57;;;;;;;5.93;100.00;99475.31;5031363;28;20451;-52
2020/12/13 04:11:06;;;;;;;0.20;0.10;;;;;;;5.82;100.00;99476.41;5035227;28;20443;-51
2020/12/13 04:13:32;;;;;;;0.30;0.20;;;;;;;5.90;100.00;99477.16;5034927;28;20497;-52
2020/12/13 04:15:58;;;;;;;2.37;2.37;;;;;;;5.91;100.00;99476.25;5035070;28;20949;-52
2020/12/13 04:18:25;;;;;;;0.20;0.10;;;;;;;6.03;100.00;99478.59;5035261;28;20539;-52
2020/12/13 04:20:51;;;;;;;0.20;0.20;;;;;;;5.87;100.00;99488.56;5034792;28;20499;-52
2020/12/13 04:23:20;;;;;;;0.50;0.50;;;;;;;5.79;100.00;99498.44;5035087;28;20452;-52
2020/12/13 04:25:46;;;;;;;0.30;0.20;;;;;;;5.94;100.00;99484.94;5034561;28;20451;-52
2020/12/13 04:28:13;;;;;;;0.20;0.20;;;;;;;6.02;100.00;99495.31;5034605;28;20451;-51
2020/12/13 04:30:39;;;;;;;0.20;0.20;;;;;;;5.87;100.00;99492.97;5034698;28;20526;-50
2020/12/13 04:33:10;;;;;;;0.30;0.20;;;;;;;5.89;100.00;99499.09;5034901;28;20451;-53
2020/12/13 04:35:38;;;;;;;0.30;0.20;;;;;;;5.83;100.00;99500.09;5034392;28;20886;-52
2020/12/13 04:38:04;;;;;;;0.30;0.20;;;;;;;6.13;100.00;99493.28;5026735;28;20449;-52
2020/12/13 04:40:33;;;;;;;0.40;0.40;;;;;;;6.10;100.00;99495.13;5032366;28;20992;-54
2020/12/13 04:43:00;;;;;;;0.20;0.20;;;;;;;5.94;100.00;99500.78;5026304;28;20456;-52
2020/12/13 04:45:27;;;;;;;0.20;0.20;;;;;;;5.90;100.00;99504.38;5032980;28;20451;-52
2020/12/13 04:48:08;;;;;;;0.20;0.10;;;;;;;5.91;100.00;99510.53;5034661;28;20878;-52
2020/12/13 04:50:37;;;;;;;0.20;0.20;;;;;;;5.89;100.00;99510.53;5034465;28;20463;-52
2020/12/13 04:53:08;;;;;;;0.30;0.20;;;;;;;6.32;100.00;99512.22;5034320;28;20479;-52
2020/12/13 04:55:57;;;;;;;0.77;0.77;;;;;;;6.16;100.00;99516.09;5033681;28;20479;-52
2020/12/13 04:58:27;;;;;;;0.37;0.37;;;;;;;6.34;100.00;99518.31;5033954;28;20936;-52
2020/12/13 05:01:02;;;;;;;0.20;0.20;;;;;;;6.33;100.00;99523.63;5034227;28;20553;-52
2020/12/13 05:03:29;;;;;;;0.23;0.20;;;;;;;6.09;100.00;99518.00;5034580;28;20443;-52
2020/12/13 05:06:01;;;;;;;0.30;0.20;;;;;;;6.04;100.00;99519.91;5034389;28;20451;-52
2020/12/13 05:08:28;;;;;;;0.20;0.10;;;;;;;5.98;100.00;99519.16;5030076;28;20447;-52
2020/12/13 05:10:54;;;;;;;1.80;1.70;;;;;;;6.10;100.00;99521.53;5033967;28;20474;-52
2020/12/13 05:13:21;;;;;;;0.30;0.20;;;;;;;6.00;100.00;99518.22;5034643;28;20509;-51
2020/12/13 05:15:47;;;;;;;0.30;0.20;;;;;;;5.98;100.00;99520.03;5034093;28;20452;-52
2020/12/13 05:18:14;;;;;;;0.30;0.20;;;;;;;6.03;100.00;99527.81;5034157;28;20477;-51
2020/12/13 05:20:43;;;;;;;0.20;0.10;;;;;;;5.78;100.00;99528.34;5033612;28;20487;-51
2020/12/13 05:23:10;;;;;;;0.30;0.20;;;;;;;5.83;100.00;99530.88;5033923;28;20483;-52
2020/12/13 05:25:38;;;;;;;0.30;0.20;;;;;;;5.70;100.00;99534.69;5033438;28;20459;-51
2020/12/13 05:28:09;;;;;;;0.30;0.20;;;;;;;5.75;100.00;99543.34;5033741;28;20941;-51
2020/12/13 05:30:43;;;;;;;0.30;0.20;;;;;;;5.85;100.00;99539.63;5033665;28;20479;-51
2020/12/13 05:35:44;;;;;;;0.20;0.20;;;;;;;5.90;100.00;99553.63;5033502;28;20990;-51
2020/12/13 05:38:15;;;;;;;0.20;0.10;;;;;;;5.98;100.00;99553.44;5024526;28;20456;-51
2020/12/13 05:40:43;;;;;;;0.30;0.20;;;;;;;6.00;100.00;99554.28;5032804;28;20491;-51
2020/12/13 05:43:21;;;;;;;0.30;0.20;;;;;;;6.08;100.00;99553.22;5023757;28;20456;-51
2020/12/13 05:53:44;;;;;;;0.20;0.20;;;;;;;6.03;100.00;99577.94;5033076;28;20452;-51
2020/12/13 05:56:21;;;;;;;0.20;0.10;;;;;;;6.04;100.00;99583.22;5033195;28;20453;-51
2020/12/13 05:58:48;;;;;;;0.20;0.10;;;;;;;6.08;100.00;99591.91;5033160;28;20542;-51
2020/12/13 06:01:19;;;;;;;0.30;0.30;;;;;;;6.13;100.00;99590.91;5032909;28;21012;-52
2020/12/13 06:03:49;;;;;;;0.20;0.13;;;;;;;6.19;100.00;99598.72;5033077;28;20479;-51
2020/12/13 06:06:20;;;;;;;0.30;0.20;;;;;;;6.36;100.00;99606.25;5032781;28;20535;-51
2020/12/13 06:09:02;;;;;;;0.20;0.10;;;;;;;6.25;100.00;99602.97;5028723;28;20497;-51
2020/12/13 06:11:38;;;;;;;0.20;0.20;;;;;;;6.27;100.00;99598.50;5032906;28;20486;-52
2020/12/13 06:14:08;;;;;;;0.30;0.20;;;;;;;6.30;100.00;99602.84;5032851;28;20886;-52
2020/12/13 06:16:35;;;;;;;0.23;0.20;;;;;;;6.33;100.00;99616.00;5032839;28;20452;-51
2020/12/13 06:19:03;;;;;;;0.40;0.40;;;;;;;6.32;100.00;99614.28;5032783;28;20467;-52
2020/12/13 06:21:30;;;;;;;0.30;0.13;;;;;;;6.29;100.00;99603.75;5032882;28;20491;-52
2020/12/13 06:23:57;;;;;;;0.30;0.20;;;;;;;6.21;100.00;99620.66;5032559;28;20846;-52
2020/12/13 06:26:24;;;;;;;0.20;0.20;;;;;;;6.28;100.00;99621.38;5032983;28;20451;-51
2020/12/13 06:28:52;;;;;;;0.20;0.20;;;;;;;6.28;100.00;99623.13;5032344;28;20456;-54
2020/12/13 06:31:19;;;;;;;0.30;0.10;;;;;;;6.31;100.00;99623.97;5032615;28;20444;-51
2020/12/13 06:33:46;;;;;;;0.20;0.20;;;;;;;6.35;100.00;99617.69;5032088;28;20941;-51
2020/12/13 06:36:14;;;;;;;0.30;0.20;;;;;;;6.55;100.00;99622.50;5032585;28;20991;-52
2020/12/13 06:38:41;;;;;;;0.30;0.20;;;;;;;6.59;100.00;99624.22;5022027;28;20887;-52
2020/12/13 06:41:09;;;;;;;0.30;0.10;;;;;;;6.79;100.00;99636.94;5032239;28;20893;-52
2020/12/13 06:43:41;;;;;;;0.20;0.10;;;;;;;6.90;100.00;99634.91;5021936;28;20465;-50
2020/12/13 06:46:15;;;;;;;0.20;0.10;;;;;;;6.92;100.00;99633.09;5032628;28;20459;-50
2020/12/13 06:48:43;;;;;;;0.30;0.20;;;;;;;7.05;100.00;99639.81;5031953;28;20912;-50
2020/12/13 06:51:10;;;;;;;0.30;0.10;;;;;;;7.06;100.00;99635.38;5032426;28;20439;-52
2020/12/13 06:53:37;;;;;;;0.30;0.20;;;;;;;7.11;100.00;99642.28;5032401;28;20460;-50
2020/12/13 06:56:12;;;;;;;0.20;0.10;;;;;;;7.17;100.00;99640.41;5032088;28;20458;-51
2020/12/13 06:58:43;;;;;;;0.27;0.20;;;;;;;7.24;100.00;99644.63;5032105;28;20948;-50
2020/12/13 07:01:20;;;;;;;0.30;0.20;;;;;;;7.24;100.00;99649.91;5031915;28;21026;-50
2020/12/13 07:03:47;;;;;;;0.30;0.20;;;;;;;7.23;100.00;99651.69;5032238;28;20452;-50
2020/12/13 07:08:52;;;;;;;0.30;0.20;;;;;;;7.30;100.00;99652.41;5027834;28;20444;-50
2020/12/13 07:11:21;;;;;;;0.30;0.20;;;;;;;7.21;100.00;99655.28;5032280;28;20444;-50
2020/12/13 07:13:48;;;;;;;0.30;0.20;;;;;;;7.18;100.00;99658.88;5032204;28;20459;-50
2020/12/13 07:16:34;;;;;;;0.30;0.20;;;;;;;7.08;100.00;99657.34;5032247;28;20448;-49
2020/12/13 07:19:07;;;;;;;0.40;0.40;;;;;;;7.12;100.00;99661.66;5033648;28;20546;-50
2020/12/13 07:21:34;;;;;;;0.30;0.20;;;;;;;7.12;100.00;99657.22;5035868;28;21027;-50
2020/12/13 07:24:00;;;;;;;0.30;0.20;;;;;;;7.24;100.00;99664.00;5035833;28;20956;-51
2020/12/13 07:26:28;;;;;;;0.30;0.20;;;;;;;7.21;100.00;99663.22;5036316;28;20505;-50
2020/12/13 07:28:57;;;;;;;0.30;0.20;;;;;;;7.25;100.00;99662.22;5035495;28;20873;-50
2020/12/13 07:31:26;;;;;;;0.30;0.30;;;;;;;7.26;100.00;99669.22;5035945;28;20471;-50
2020/12/13 07:33:53;;;;;;;0.30;0.20;;;;;;;7.25;100.00;99667.50;5035716;28;20871;-50
2020/12/13 07:36:19;;;;;;;0.30;0.20;;;;;;;7.32;100.00;99682.31;5035794;28;20446;-50
2020/12/13 07:38:46;;;;;;;0.30;0.20;;;;;;;7.33;100.00;99682.28;5024937;28;20447;-50
2020/12/13 07:41:20;;;;;;;0.30;0.20;;;;;;;7.26;100.00;99687.72;5035976;28;20491;-52
2020/12/13 07:43:55;;;;;;;0.30;0.20;;;;;;;7.28;100.00;99692.09;5025222;28;20477;-51
2020/12/13 07:46:22;;;;;;;0.30;0.20;;;;;;;7.30;100.00;99697.34;5035926;28;20483;-50
2020/12/13 07:48:59;;;;;;;0.30;0.20;;;;;;;7.35;100.00;99701.59;5035625;28;20459;-50
2020/12/13 07:51:25;;;;;;;0.30;0.20;;;;;;;7.34;100.00;99697.22;5035542;28;20439;-50
2020/12/13 07:53:52;;;;;;;0.30;0.20;;;;;;;7.41;100.00;99711.19;5035820;28;20451;-50
2020/12/13 07:56:27;;;;;;;0.30;0.20;;;;;;;7.43;100.00;99712.88;5035154;28;20534;-50
2020/12/13 07:59:09;;;;;;;0.30;0.20;;;;;;;7.49;100.00;99713.59;5035420;28;20455;-50
2020/12/13 08:01:35;;;;;;;0.77;0.77;;;;;;;7.63;100.00;99707.06;5035510;28;20567;-50
2020/12/13 08:04:02;;;;;;;0.30;0.20;;;;;;;7.67;100.00;99715.75;5035533;28;20454;-51
2020/12/13 08:06:28;;;;;;;0.30;0.20;;;;;;;7.53;100.00;99721.41;5034159;28;20450;-50
2020/12/13 08:08:54;;;;;;;0.30;0.20;;;;;;;7.60;100.00;99725.66;5030716;28;20459;-50
2020/12/13 08:11:21;;;;;;;0.30;0.20;;;;;;;7.56;100.00;99723.13;5034998;28;20926;-51
2020/12/13 08:13:54;;;;;;;0.30;0.20;;;;;;;7.72;100.00;99727.13;5034837;28;20458;-52
2020/12/13 08:16:24;;;;;;;0.30;0.20;;;;;;;7.81;100.00;99729.53;5034997;28;20837;-50
2020/12/13 08:18:55;;;;;;;0.30;0.20;;;;;;;7.77;100.00;99738.44;5035265;28;20459;-50
2020/12/13 08:21:29;;;;;;;0.30;0.20;;;;;;;7.59;100.00;99739.78;5034650;28;20487;-54
2020/12/13 08:23:57;;;;;;;0.30;0.20;;;;;;;7.67;100.00;99744.88;5035071;28;20478;-50
2020/12/13 08:26:26;;;;;;;0.30;0.20;;;;;;;7.62;100.00;99752.06;5034903;28;20448;-50
2020/12/13 08:28:53;;;;;;;0.30;0.20;;;;;;;7.62;100.00;99755.56;5034719;28;20451;-50
2020/12/13 08:31:25;;;;;;;0.30;0.20;;;;;;;7.65;100.00;99754.63;5035218;28;20448;-50
2020/12/13 08:34:06;;;;;;;0.30;0.20;;;;;;;7.68;100.00;99765.16;5034859;28;20443;-50
2020/12/13 08:36:34;;;;;;;0.30;0.17;;;;;;;7.76;100.00;99762.28;5035213;28;20494;-51
2020/12/13 08:39:09;;;;;;;0.30;0.20;;;;;;;7.79;100.00;99763.06;5023578;28;20479;-52
2020/12/13 08:41:42;;;;;;;0.30;0.20;;;;;;;7.80;100.00;99763.94;5034654;28;20482;-50
2020/12/13 08:44:24;;;;;;;0.30;0.20;;;;;;;7.88;100.00;99767.25;5024096;28;20455;-51
2020/12/13 08:46:51;;;;;;;0.30;0.20;;;;;;;7.88;100.00;99776.06;5034707;28;20447;-50
2020/12/13 08:49:24;;;;;;;0.30;0.20;;;;;;;7.89;100.00;99771.66;5034349;28;20468;-52
2020/12/13 08:51:51;;;;;;;0.30;0.20;;;;;;;7.84;100.00;99776.19;5034494;28;20448;-52
2020/12/13 08:54:17;;;;;;;0.30;0.20;;;;;;;8.08;100.00;99778.19;5034455;28;20944;-52
2020/12/13 08:57:01;;;;;;;0.30;0.30;;;;;;;7.93;100.00;99781.22;5034256;28;21037;-53
2020/12/13 08:59:27;;;;;;;0.30;0.20;;;;;;;8.03;100.00;99786.25;5034256;28;20525;-52
2020/12/13 09:01:58;;;;;;;0.30;0.20;;;;;;;7.96;100.00;99790.00;5034400;28;20447;-52
2020/12/13 09:04:28;;;;;;;0.30;0.20;;;;;;;7.94;100.00;99797.06;5034235;28;20476;-52
2020/12/13 09:06:59;;;;;;;0.30;0.20;;;;;;;7.92;100.00;99790.09;5034157;28;20452;-52
2020/12/13 09:09:33;;;;;;;0.30;0.20;;;;;;;8.07;100.00;99799.41;5033978;28;20479;-52
2020/12/13 09:12:00;;;;;;;0.30;0.20;;;;;;;7.95;100.00;99797.97;5034066;28;20934;-51
2020/12/13 09:14:32;;;;;;;0.30;0.20;;;;;;;7.87;100.00;99805.22;5034085;28;20451;-50
2020/12/13 09:17:00;;;;;;;0.30;0.30;;;;;;;7.79;100.00;99807.19;5033719;28;20946;-51
2020/12/13 09:19:28;;;;;;;0.30;0.20;;;;;;;7.73;100.00;99816.16;5033774;28;20471;-51
2020/12/13 09:21:57;;;;;;;0.30;0.20;;;;;;;7.78;100.00;99829.25;5033723;28;20459;-51
2020/12/13 09:24:29;;;;;;;0.30;0.20;;;;;;;7.69;100.00;99833.00;5033847;28;20448;-51
2020/12/13 09:27:04;;;;;;;0.30;0.20;;;;;;;7.68;100.00;99831.28;5034011;28;20482;-50
2020/12/13 09:29:31;;;;;;;0.30;0.20;;;;;;;7.65;100.00;99840.13;5033865;28;20475;-51
2020/12/13 09:31:58;;;;;;;0.30;0.20;;;;;;;7.62;100.00;99837.56;5033271;28;20447;-51
2020/12/13 09:34:25;;;;;;;0.30;0.20;;;;;;;7.66;100.00;99844.50;5033383;28;20498;-51
2020/12/13 09:36:52;;;;;;;0.30;0.20;;;;;;;7.54;100.00;99852.75;5033489;28;20454;-51
2020/12/13 09:39:28;;;;;;;0.40;0.37;;;;;;;7.53;100.00;99861.56;5022763;28;20554;-52
2020/12/13 09:41:55;;;;;;;0.30;0.20;;;;;;;7.59;100.00;99863.22;5032525;28;20498;-50
2020/12/13 09:44:21;;;;;;;0.30;0.20;;;;;;;7.57;100.00;99862.41;5023310;28;20467;-50
2020/12/13 09:46:48;;;;;;;0.30;0.20;;;;;;;7.60;100.00;99859.66;5033358;28;20457;-51
2020/12/13 09:49:15;;;;;;;0.30;0.20;;;;;;;7.68;100.00;99858.59;5033158;28;20487;-51
2020/12/13 09:51:41;;;;;;;0.30;0.20;;;;;;;7.88;100.00;99865.16;5032865;28;20459;-51
2020/12/13 09:54:07;;;;;;;0.30;0.20;;;;;;;7.87;100.00;99880.19;5033461;28;20456;-50
2020/12/13 09:56:33;;;;;;;0.30;0.20;;;;;;;7.89;100.00;99878.34;5032858;28;21003;-51
2020/12/13 09:58:59;;;;;;;0.30;0.20;;;;;;;7.95;100.00;99875.59;5033400;28;20479;-50
2020/12/13 10:01:25;;;;;;;0.30;0.20;;;;;;;8.11;100.00;99880.50;5032752;28;21027;-51
2020/12/13 10:03:54;;;;;;;0.30;0.20;;;;;;;8.11;100.00;99883.13;5033342;28;20521;-50
2020/12/13 10:11:32;;;;;;;0.30;0.20;;;;;;;8.26;100.00;99872.16;5032832;28;20451;-52
2020/12/13 10:13:59;;;;;;;0.30;0.20;;;;;;;8.40;100.00;99877.13;5032715;28;20941;-51
2020/12/13 10:16:26;;;;;;;0.30;0.20;;;;;;;8.37;100.00;99871.91;5006667;28;20796;-51
2020/12/13 10:18:52;;;;;;;0.30;0.20;;;;;;;8.50;100.00;99873.31;5032832;28;20570;-52
2020/12/13 10:21:23;;;;;;;0.30;0.20;;;;;;;8.50;100.00;99878.63;5033155;28;20495;-51
2020/12/13 10:23:50;;;;;;;0.30;0.20;;;;;;;8.67;100.00;99864.91;5033002;28;20462;-50
2020/12/13 10:26:16;;;;;;;0.30;0.20;;;;;;;8.51;100.00;99869.75;5032326;28;20451;-51
2020/12/13 10:28:43;;;;;;;0.30;0.20;;;;;;;8.60;100.00;99873.00;5032347;28;20447;-51
2020/12/13 10:31:10;;;;;;;0.30;0.20;;;;;;;8.43;100.00;99871.72;5032914;28;20451;-51
2020/12/13 10:33:40;;;;;;;0.30;0.20;;;;;;;8.58;100.00;99872.19;5032608;28;20452;-51
2020/12/13 10:36:13;;;;;;;0.30;0.20;;;;;;;8.37;100.00;99869.25;5032484;28;20535;-52
2020/12/13 10:38:40;;;;;;;0.30;0.20;;;;;;;8.33;100.00;99871.94;5021709;28;20525;-51
2020/12/13 10:41:08;;;;;;;0.30;0.20;;;;;;;8.47;100.00;99870.72;5032046;28;20565;-51
2020/12/13 10:43:35;;;;;;;0.30;0.20;;;;;;;8.40;100.00;99869.19;5022572;28;20547;-51
2020/12/13 10:46:05;;;;;;;0.30;0.20;;;;;;;8.47;100.00;99876.03;5032375;28;20448;-52
2020/12/13 10:48:32;;;;;;;0.40;0.30;;;;;;;8.58;100.00;99869.53;5032220;28;20447;-51
2020/12/13 10:50:59;;;;;;;0.30;0.20;;;;;;;8.49;100.00;99874.22;5032041;28;20464;-52
2020/12/13 10:53:26;;;;;;;0.30;0.20;;;;;;;8.52;100.00;99868.84;5030978;28;20462;-52
2020/12/13 10:55:53;;;;;;;0.30;0.20;;;;;;;8.32;100.00;99872.84;5032165;28;20447;-51
2020/12/13 10:58:19;;;;;;;0.37;0.30;;;;;;;8.37;100.00;99862.19;5032309;28;20513;-52
2020/12/13 11:00:46;;;;;;;0.30;0.20;;;;;;;8.37;100.00;99862.19;5032316;28;20491;-52
2020/12/13 11:03:13;;;;;;;0.30;0.20;;;;;;;8.46;100.00;99853.97;5032227;28;20447;-51
2020/12/13 11:05:39;;;;;;;0.30;0.30;;;;;;;8.71;100.00;99862.13;5032075;28;20452;-52
2020/12/13 11:08:05;;;;;;;0.30;0.20;;;;;;;8.86;100.00;99852.88;5028622;28;20518;-52
2020/12/13 11:10:31;;;;;;;0.30;0.20;;;;;;;8.89;100.00;99852.78;5032404;28;20467;-53
2020/12/13 11:12:57;;;;;;;0.30;0.20;;;;;;;8.82;100.00;99856.53;5031968;28;20463;-52
2020/12/13 11:15:23;;;;;;;0.30;0.20;;;;;;;8.88;100.00;99857.22;5031978;28;20498;-52
2020/12/13 11:17:50;;;;;;;0.30;0.20;;;;;;;8.94;100.00;99850.88;5032003;28;20505;-52
2020/12/13 11:20:16;;;;;;;0.30;0.20;;;;;;;9.03;100.00;99852.38;5032181;28;20498;-51
2020/12/13 11:22:42;;;;;;;0.30;0.20;;;;;;;9.27;100.00;99859.59;5032159;28;20482;-50
2020/12/13 11:25:08;;;;;;;0.30;0.20;;;;;;;9.04;100.00;99865.59;5031900;28;20937;-50
2020/12/13 11:27:35;;;;;;;0.30;0.20;;;;;;;9.12;100.00;99860.94;5031857;28;20937;-50
2020/12/13 11:30:09;;;;;;;0.30;0.20;;;;;;;9.32;100.00;99862.09;5031879;28;20844;-50
2020/12/13 11:32:35;;;;;;;0.30;0.20;;;;;;;9.08;98.39;99864.59;5031913;28;20478;-50
2020/12/13 11:35:02;;;;;;;0.30;0.20;;;;;;;9.18;98.95;99865.19;5032207;28;20451;-51
2020/12/13 11:37:28;;;;;;;0.30;0.20;;;;;;;9.05;99.59;99861.19;5028329;28;20481;-50
2020/12/13 11:39:56;;;;;;;0.30;0.20;;;;;;;8.87;99.30;99862.56;5025029;28;20490;-50
2020/12/13 11:42:23;;;;;;;0.30;0.20;;;;;;;9.10;99.17;99864.56;5028768;28;20460;-50
2020/12/13 11:44:50;;;;;;;0.30;0.20;;;;;;;9.12;98.51;99865.38;5025620;28;20494;-51
2020/12/13 11:47:16;;;;;;;0.30;0.20;;;;;;;9.33;99.06;99859.44;5031962;28;20447;-50
2020/12/13 11:49:44;;;;;;;0.30;0.20;;;;;;;9.41;99.87;99862.72;5031780;28;20474;-52
2020/12/13 11:52:10;;;;;;;0.30;0.20;;;;;;;9.54;99.88;99855.25;5031836;28;20877;-50
2020/12/13 11:54:36;;;;;;;0.30;0.20;;;;;;;9.58;99.76;99863.97;5031806;28;20447;-53
2020/12/13 11:57:03;;;;;;;0.30;0.20;;;;;;;9.43;98.31;99870.63;5031811;28;20459;-50